Time;durP1;ratioP1;P1;durP2;ratioP2;P2;SDS_P1;SDS_P2;PMS_P1;PMS_P2;Temp;Humidity;BMP_temperature;BMP_pressure;BME280_temperature;BME280_humidity;BME280_pressure;Samples;Min_cycle;Max_cycle;Signal;HPM_P1;HPM_P2
2021/11/11 00:00:41;;;;;;;61.30;14.63;;;2.80;99.90;;;;;;5023004;28;20894;-62
2021/11/11 00:03:07;;;;;;;34.80;12.50;;;2.80;99.90;;;;;;4998545;28;20412;-59
2021/11/11 00:05:34;;;;;;;35.27;13.10;;;2.80;99.90;;;;;;5009434;28;20497;-61
2021/11/11 00:08:00;;;;;;;52.37;14.13;;;2.80;99.90;;;;;;5011338;28;20944;-62
2021/11/11 00:10:27;;;;;;;39.17;12.90;;;2.80;99.90;;;;;;5023705;28;20434;-61
2021/11/11 00:12:54;;;;;;;27.97;11.93;;;2.80;99.90;;;;;;4991697;28;20461;-59
2021/11/11 00:15:21;;;;;;;45.60;15.10;;;2.80;99.90;;;;;;5024073;28;20498;-61
2021/11/11 00:17:48;;;;;;;33.37;13.13;;;2.80;99.90;;;;;;5009495;28;20415;-61
2021/11/11 00:20:16;;;;;;;39.07;14.40;;;2.80;99.90;;;;;;5009702;28;20432;-60
2021/11/11 00:22:44;;;;;;;38.67;13.17;;;2.80;99.90;;;;;;4994392;28;20408;-61
2021/11/11 00:25:12;;;;;;;35.70;12.13;;;2.80;99.90;;;;;;5005004;28;20926;-62
2021/11/11 00:27:39;;;;;;;25.03;13.03;;;2.80;99.90;;;;;;5009857;28;20431;-61
2021/11/11 00:30:07;;;;;;;21.73;11.80;;;2.80;99.90;;;;;;5009399;28;20926;-60
2021/11/11 00:32:34;;;;;;;27.67;11.47;;;2.80;99.90;;;;;;5009903;28;20433;-61
2021/11/11 00:34:59;;;;;;;28.37;11.73;;;2.80;99.90;;;;;;5009088;28;20478;-61
2021/11/11 00:37:25;;;;;;;25.90;12.40;;;2.80;99.90;;;;;;4999638;28;20914;-63
2021/11/11 00:39:51;;;;;;;36.03;12.90;;;2.80;99.90;;;;;;5006719;28;20177;-62
2021/11/11 00:42:18;;;;;;;25.00;11.97;;;2.70;99.90;;;;;;5025603;28;20469;-62
2021/11/11 00:44:45;;;;;;;43.83;13.07;;;2.70;99.90;;;;;;5009215;28;20802;-61
2021/11/11 00:47:12;;;;;;;45.90;14.13;;;2.70;99.90;;;;;;5008086;28;20427;-61
2021/11/11 00:49:38;;;;;;;35.17;12.80;;;2.70;99.90;;;;;;5010508;28;20426;-62
2021/11/11 00:52:04;;;;;;;35.93;13.60;;;2.60;99.90;;;;;;5023151;28;20975;-61
2021/11/11 00:54:31;;;;;;;43.83;13.67;;;2.60;99.90;;;;;;5023373;28;20969;-61
2021/11/11 00:56:57;;;;;;;41.83;12.97;;;2.60;99.90;;;;;;5010707;28;20847;-61
2021/11/11 00:59:22;;;;;;;89.33;14.87;;;2.60;99.90;;;;;;5010509;28;21417;-61
2021/11/11 01:01:48;;;;;;;42.83;13.17;;;2.50;99.90;;;;;;5008991;28;20202;-62
2021/11/11 01:04:13;;;;;;;39.10;13.50;;;2.50;99.90;;;;;;5007331;28;20187;-61
2021/11/11 01:06:39;;;;;;;111.80;15.67;;;2.50;99.90;;;;;;5009740;28;20180;-61
2021/11/11 01:09:05;;;;;;;31.47;11.93;;;2.50;99.90;;;;;;5009710;28;20652;-61
2021/11/11 01:11:30;;;;;;;58.90;13.43;;;2.50;99.90;;;;;;5007655;28;20241;-61
2021/11/11 01:13:56;;;;;;;40.13;12.47;;;2.50;99.90;;;;;;5008435;28;21689;-61
2021/11/11 01:16:22;;;;;;;48.37;12.87;;;2.50;99.90;;;;;;5006819;28;20211;-60
2021/11/11 01:18:47;;;;;;;49.07;11.50;;;2.50;99.90;;;;;;5009144;28;20672;-61
2021/11/11 01:21:13;;;;;;;63.20;13.23;;;2.50;99.90;;;;;;5008208;28;20219;-61
2021/11/11 01:23:41;;;;;;;76.20;13.53;;;2.50;99.90;;;;;;5006554;28;20172;-61
2021/11/11 01:26:07;;;;;;;62.87;12.30;;;2.40;99.90;;;;;;5006316;28;20517;-61
2021/11/11 01:28:34;;;;;;;54.23;12.20;;;2.40;99.90;;;;;;5007946;28;20437;-61
2021/11/11 01:31:00;;;;;;;80.67;14.07;;;2.40;99.90;;;;;;5007771;28;20448;-61
2021/11/11 01:33:26;;;;;;;64.97;10.73;;;2.40;99.90;;;;;;5009367;28;20573;-61
2021/11/11 01:35:51;;;;;;;43.67;9.83;;;2.30;99.90;;;;;;5008953;28;20195;-61
2021/11/11 01:38:17;;;;;;;86.37;12.53;;;2.30;99.90;;;;;;5010929;28;20166;-61
2021/11/11 01:40:44;;;;;;;48.43;11.83;;;2.30;99.90;;;;;;5003133;28;20211;-61
2021/11/11 01:43:09;;;;;;;35.83;12.73;;;2.10;99.90;;;;;;5008804;28;20427;-62
2021/11/11 01:45:41;;;;;;;45.87;13.43;;;2.10;99.90;;;;;;5008495;28;20431;-61
2021/11/11 01:48:09;;;;;;;50.60;12.20;;;2.00;99.90;;;;;;5007313;28;20227;-62
2021/11/11 01:50:37;;;;;;;43.63;13.47;;;2.00;99.90;;;;;;5006635;28;20460;-61
2021/11/11 01:53:04;;;;;;;51.37;13.67;;;1.90;99.90;;;;;;5010711;28;20514;-59
2021/11/11 01:55:30;;;;;;;65.97;13.60;;;1.90;99.90;;;;;;5003721;28;20518;-61
2021/11/11 01:57:58;;;;;;;51.97;11.83;;;1.90;99.90;;;;;;5009543;28;20498;-60
2021/11/11 02:00:34;;;;;;;46.07;12.40;;;1.90;99.90;;;;;;5009187;28;20447;-60
2021/11/11 02:03:02;;;;;;;68.33;13.37;;;1.90;99.90;;;;;;4999380;28;20454;-61
2021/11/11 02:05:30;;;;;;;67.07;13.93;;;1.90;99.90;;;;;;5008506;28;20426;-61
2021/11/11 02:07:55;;;;;;;92.30;14.10;;;1.80;99.90;;;;;;5013145;28;20422;-61
2021/11/11 02:10:22;;;;;;;56.43;12.07;;;1.80;99.90;;;;;;5007905;28;20457;-59
2021/11/11 02:12:49;;;;;;;41.67;12.70;;;1.80;99.90;;;;;;4998113;28;20700;-61
2021/11/11 02:15:16;;;;;;;59.00;12.10;;;1.80;99.90;;;;;;5024170;28;20454;-61
2021/11/11 02:17:42;;;;;;;72.73;12.43;;;1.80;99.90;;;;;;5014894;28;20450;-62
2021/11/11 02:22:35;;;;;;;35.47;11.00;;;1.70;99.90;;;;;;5048237;23;20917;-58
2021/11/11 02:25:06;;;;;;;56.67;13.00;;;1.70;99.90;;;;;;5029894;28;20939;-58
2021/11/11 02:27:31;;;;;;;21.03;9.87;;;1.70;99.90;;;;;;5027484;28;20190;-58
2021/11/11 02:29:57;;;;;;;20.70;10.10;;;1.60;99.90;;;;;;5029830;28;20490;-58
2021/11/11 02:32:31;;;;;;;147.57;14.50;;;1.60;99.90;;;;;;5032235;28;20623;-58
2021/11/11 02:34:57;;;;;;;83.27;13.30;;;1.50;99.90;;;;;;5021045;28;20685;-58
2021/11/11 02:37:30;;;;;;;27.37;10.87;;;1.50;99.90;;;;;;5013488;28;20466;-59
2021/11/11 02:39:59;;;;;;;68.33;12.53;;;1.40;99.90;;;;;;5037366;28;20423;-58
2021/11/11 02:42:26;;;;;;;22.07;9.63;;;1.50;99.90;;;;;;5036131;28;20481;-57
2021/11/11 02:44:56;;;;;;;19.23;10.10;;;1.50;99.90;;;;;;5024751;28;20453;-59
2021/11/11 02:47:22;;;;;;;21.83;9.90;;;1.50;99.90;;;;;;5031216;28;20825;-59
2021/11/11 02:49:48;;;;;;;25.60;11.03;;;1.50;99.90;;;;;;5027627;28;20425;-58
2021/11/11 02:52:13;;;;;;;28.87;10.93;;;1.60;99.90;;;;;;5021441;28;20536;-57
2021/11/11 02:54:39;;;;;;;38.50;10.47;;;1.60;99.90;;;;;;5021455;28;20225;-58
2021/11/11 02:57:28;;;;;;;48.10;11.53;;;1.60;99.90;;;;;;5033952;28;20187;-58
2021/11/11 02:59:56;;;;;;;129.03;13.83;;;1.60;99.90;;;;;;5024722;28;20432;-59
2021/11/11 03:02:27;;;;;;;154.60;15.73;;;1.60;99.90;;;;;;5025558;28;20427;-57
2021/11/11 03:04:54;;;;;;;105.33;12.93;;;1.60;99.90;;;;;;5016607;28;20576;-59
2021/11/11 03:07:20;;;;;;;52.83;10.93;;;1.60;99.90;;;;;;5026293;28;20409;-59
2021/11/11 03:09:47;;;;;;;32.63;11.03;;;1.60;99.90;;;;;;5031024;28;20437;-60
2021/11/11 03:12:13;;;;;;;40.63;11.60;;;1.50;99.90;;;;;;5025585;28;20485;-58
2021/11/11 03:14:40;;;;;;;126.57;12.70;;;1.50;99.90;;;;;;5022253;28;20481;-58
2021/11/11 03:17:06;;;;;;;189.50;15.30;;;1.60;99.90;;;;;;5028609;28;20414;-58
2021/11/11 03:19:32;;;;;;;122.73;14.87;;;1.60;99.90;;;;;;5035384;28;20420;-59
2021/11/11 03:21:58;;;;;;;111.13;12.53;;;1.50;99.90;;;;;;5047487;28;20439;-59
2021/11/11 03:24:24;;;;;;;74.53;12.40;;;1.50;99.90;;;;;;5035556;28;20424;-57
2021/11/11 03:26:50;;;;;;;50.00;10.67;;;1.40;99.90;;;;;;5043010;28;20174;-58
2021/11/11 03:29:15;;;;;;;36.17;11.10;;;1.40;99.90;;;;;;5039310;28;20428;-59
2021/11/11 03:31:41;;;;;;;79.67;12.00;;;1.40;99.90;;;;;;5034251;28;20217;-57
2021/11/11 03:34:07;;;;;;;27.30;12.03;;;1.40;99.90;;;;;;5031451;28;20198;-59
2021/11/11 03:36:33;;;;;;;30.47;11.70;;;1.50;99.90;;;;;;5049203;28;20261;-57
2021/11/11 03:38:58;;;;;;;43.33;11.83;;;1.50;99.90;;;;;;5036525;28;20219;-62
2021/11/11 03:41:25;;;;;;;25.70;9.93;;;1.50;99.90;;;;;;5050644;28;20436;-59
2021/11/11 03:43:51;;;;;;;27.83;10.20;;;1.50;99.90;;;;;;5031533;28;20185;-59
2021/11/11 03:46:17;;;;;;;49.07;11.17;;;1.50;99.90;;;;;;5029770;28;20426;-59
2021/11/11 03:48:42;;;;;;;43.73;11.00;;;1.50;99.90;;;;;;5032171;28;20337;-59
2021/11/11 03:51:08;;;;;;;60.90;14.33;;;1.50;99.90;;;;;;5036943;28;20871;-58
2021/11/11 03:53:34;;;;;;;63.33;13.70;;;1.50;99.90;;;;;;5044846;28;20273;-59
2021/11/11 03:56:00;;;;;;;67.50;11.60;;;1.50;99.90;;;;;;5036134;28;20621;-60
2021/11/11 03:58:26;;;;;;;81.90;11.83;;;1.50;99.90;;;;;;5025141;28;20559;-58
2021/11/11 04:00:52;;;;;;;77.30;10.07;;;1.50;99.90;;;;;;5039957;28;20438;-58
2021/11/11 04:03:18;;;;;;;131.20;13.67;;;1.50;99.90;;;;;;5023190;28;20171;-58
2021/11/11 04:05:44;;;;;;;96.63;13.00;;;1.50;99.90;;;;;;5015214;28;20426;-59
2021/11/11 04:08:09;;;;;;;71.87;11.60;;;1.40;99.90;;;;;;5012624;28;20410;-59
2021/11/11 04:10:36;;;;;;;107.50;12.00;;;1.40;99.90;;;;;;5024645;28;20673;-59
2021/11/11 04:13:05;;;;;;;60.40;10.80;;;1.40;99.90;;;;;;5031884;28;20178;-59
2021/11/11 04:15:32;;;;;;;80.67;11.93;;;1.40;99.90;;;;;;5023752;28;20486;-61
2021/11/11 04:17:58;;;;;;;68.77;11.30;;;1.40;99.90;;;;;;5027032;28;20966;-60
2021/11/11 04:20:25;;;;;;;73.43;11.40;;;1.30;99.90;;;;;;5038936;28;20421;-59
2021/11/11 04:22:51;;;;;;;93.87;11.00;;;1.30;99.90;;;;;;5025144;28;20480;-59
2021/11/11 04:25:24;;;;;;;38.37;11.97;;;1.30;99.90;;;;;;5027508;28;20974;-59
2021/11/11 04:27:59;;;;;;;67.30;9.70;;;1.20;99.90;;;;;;5041585;28;20459;-60
2021/11/11 04:30:29;;;;;;;60.50;10.27;;;1.20;99.90;;;;;;5052677;28;20434;-60
2021/11/11 04:32:55;;;;;;;45.50;9.03;;;1.10;99.90;;;;;;5035614;28;20430;-58
2021/11/11 04:35:21;;;;;;;72.80;10.80;;;1.00;99.90;;;;;;5036352;28;20584;-59
2021/11/11 04:37:57;;;;;;;49.63;10.63;;;0.90;99.90;;;;;;5031050;28;20508;-60
2021/11/11 04:59:43;;;;;;;45.83;10.17;;;0.90;99.90;;;;;;5028722;28;20416;-59
2021/11/11 05:04:34;;;;;;;37.00;9.50;;;0.80;99.90;;;;;;5018947;28;21128;-57
2021/11/11 05:07:00;;;;;;;51.20;9.63;;;0.80;99.90;;;;;;5023528;28;20271;-59
2021/11/11 05:09:25;;;;;;;29.63;9.80;;;0.90;99.90;;;;;;5025315;28;20168;-61
2021/11/11 05:11:51;;;;;;;17.90;8.57;;;0.80;99.90;;;;;;5019430;28;20225;-59
2021/11/11 05:14:17;;;;;;;21.90;9.27;;;0.80;99.90;;;;;;5021618;28;21630;-59
2021/11/11 05:16:43;;;;;;;22.27;9.17;;;0.80;99.90;;;;;;5024734;28;20246;-59
2021/11/11 05:19:08;;;;;;;20.67;9.63;;;0.80;99.90;;;;;;5023579;28;20956;-59
2021/11/11 05:21:34;;;;;;;35.87;10.00;;;0.80;99.90;;;;;;5022310;28;20484;-58
2021/11/11 05:24:00;;;;;;;25.80;9.03;;;0.80;99.90;;;;;;5014035;28;20314;-58
2021/11/11 05:26:25;;;;;;;45.73;10.67;;;0.70;99.90;;;;;;5022969;28;20177;-59
2021/11/11 05:28:51;;;;;;;35.80;9.20;;;0.70;99.90;;;;;;5018223;28;20193;-58
2021/11/11 05:31:17;;;;;;;23.80;10.30;;;0.80;99.90;;;;;;5015950;28;20262;-58
2021/11/11 05:33:43;;;;;;;26.37;9.10;;;0.80;99.90;;;;;;5021657;28;20518;-59
2021/11/11 05:36:09;;;;;;;25.63;9.93;;;0.80;99.90;;;;;;5017369;28;20268;-59
2021/11/11 05:38:35;;;;;;;24.70;9.20;;;0.80;99.90;;;;;;5015644;28;20530;-59
2021/11/11 05:41:00;;;;;;;28.23;8.87;;;0.80;99.90;;;;;;5017633;28;20514;-58
2021/11/11 05:43:26;;;;;;;27.80;9.67;;;0.80;99.90;;;;;;5021375;28;20178;-57
2021/11/11 05:45:52;;;;;;;22.70;9.83;;;0.80;99.90;;;;;;5015983;28;20180;-58
2021/11/11 05:48:18;;;;;;;48.53;10.57;;;0.80;99.90;;;;;;5018874;28;20182;-59
2021/11/11 05:50:43;;;;;;;30.63;9.23;;;0.80;99.90;;;;;;5013363;28;20212;-59
2021/11/11 05:53:09;;;;;;;52.53;10.70;;;0.80;99.90;;;;;;5018648;28;20645;-60
2021/11/11 05:55:35;;;;;;;30.57;10.03;;;0.80;99.90;;;;;;5017382;28;20275;-58
2021/11/11 05:58:02;;;;;;;25.87;10.90;;;0.80;99.90;;;;;;5018783;28;20181;-59
2021/11/11 06:00:28;;;;;;;44.43;10.13;;;0.80;99.90;;;;;;5023731;28;20169;-60
2021/11/11 06:02:54;;;;;;;25.57;10.37;;;0.80;99.90;;;;;;5030693;28;20425;-59
2021/11/11 06:05:20;;;;;;;14.67;9.60;;;0.80;99.90;;;;;;5032528;28;20449;-62
2021/11/11 06:07:47;;;;;;;17.70;10.00;;;0.80;99.90;;;;;;5041252;28;20480;-62
2021/11/11 06:10:13;;;;;;;21.53;11.70;;;0.70;99.90;;;;;;5049410;28;20467;-60
2021/11/11 06:12:39;;;;;;;19.63;12.93;;;0.80;99.90;;;;;;5030349;28;20833;-58
2021/11/11 06:15:05;;;;;;;23.93;12.33;;;0.80;99.90;;;;;;5025017;28;20275;-56
2021/11/11 06:17:31;;;;;;;20.57;12.07;;;0.80;99.90;;;;;;5018850;28;20556;-58
2021/11/11 06:19:57;;;;;;;23.00;12.13;;;0.80;99.90;;;;;;5017768;28;20524;-59
2021/11/11 06:22:23;;;;;;;26.63;13.87;;;0.90;99.90;;;;;;5028523;28;20190;-60
2021/11/11 06:24:49;;;;;;;22.97;13.07;;;0.90;99.90;;;;;;5043123;28;20441;-61
2021/11/11 06:27:16;;;;;;;23.10;12.43;;;0.90;99.90;;;;;;5047701;28;20442;-61
2021/11/11 06:29:42;;;;;;;25.63;11.70;;;0.90;99.90;;;;;;5046657;28;20169;-60
2021/11/11 06:32:08;;;;;;;23.67;11.57;;;0.90;99.90;;;;;;5027716;28;20441;-57
2021/11/11 06:34:34;;;;;;;22.10;10.97;;;0.90;99.90;;;;;;5015045;28;20292;-60
2021/11/11 06:36:59;;;;;;;23.67;11.90;;;0.90;99.90;;;;;;5019912;28;20262;-61
2021/11/11 06:39:25;;;;;;;24.50;11.63;;;0.90;99.90;;;;;;5022983;28;20206;-61
2021/11/11 06:41:51;;;;;;;28.77;12.40;;;0.90;99.90;;;;;;5024065;28;20207;-58
2021/11/11 06:44:23;;;;;;;21.50;12.40;;;0.90;99.90;;;;;;5016894;28;20198;-60
2021/11/11 06:46:49;;;;;;;28.97;14.40;;;0.90;99.90;;;;;;5019263;28;20429;-59
2021/11/11 06:49:15;;;;;;;35.47;15.90;;;0.90;99.90;;;;;;5037359;28;20428;-60
2021/11/11 06:51:41;;;;;;;31.70;15.80;;;0.90;99.90;;;;;;5019039;28;21032;-58
2021/11/11 06:54:08;;;;;;;29.00;14.17;;;0.90;99.90;;;;;;5030638;28;20199;-60
2021/11/11 06:56:35;;;;;;;44.53;13.37;;;0.90;99.90;;;;;;5038594;28;20215;-60
2021/11/11 06:59:01;;;;;;;34.43;13.17;;;0.90;99.90;;;;;;5023325;28;20529;-59
2021/11/11 07:01:26;;;;;;;33.87;13.10;;;0.90;99.90;;;;;;5024272;28;20552;-60
2021/11/11 07:03:52;;;;;;;102.43;14.50;;;0.80;99.90;;;;;;5029580;28;20304;-61
2021/11/11 07:06:17;;;;;;;87.10;12.90;;;0.80;99.90;;;;;;5032979;28;20232;-59
2021/11/11 07:08:44;;;;;;;35.23;12.00;;;0.80;99.90;;;;;;5014269;28;20189;-60
2021/11/11 07:11:10;;;;;;;99.10;14.67;;;0.80;99.90;;;;;;5038315;28;20217;-60
2021/11/11 07:13:35;;;;;;;45.93;13.33;;;0.80;99.90;;;;;;5032787;28;20902;-60
2021/11/11 07:16:01;;;;;;;50.13;13.57;;;0.80;99.90;;;;;;5019802;28;20584;-59
2021/11/11 07:18:27;;;;;;;31.07;13.03;;;0.80;99.90;;;;;;5028426;28;20181;-60
2021/11/11 07:20:53;;;;;;;69.23;14.97;;;0.80;99.90;;;;;;5025720;28;21051;-60
2021/11/11 07:23:22;;;;;;;25.77;13.50;;;0.80;99.90;;;;;;5029782;28;20412;-59
2021/11/11 07:25:51;;;;;;;28.50;13.10;;;0.80;99.90;;;;;;5030311;28;20980;-60
2021/11/11 07:28:18;;;;;;;39.63;13.70;;;0.80;99.90;;;;;;5029468;28;20884;-60
2021/11/11 07:30:45;;;;;;;40.50;15.70;;;0.90;99.90;;;;;;5023260;28;20990;-59
2021/11/11 07:33:12;;;;;;;26.60;13.97;;;0.90;99.90;;;;;;5026480;28;20481;-62
2021/11/11 07:35:40;;;;;;;35.10;13.60;;;0.90;99.90;;;;;;5028169;28;20453;-60
2021/11/11 07:38:06;;;;;;;37.10;15.30;;;1.00;99.90;;;;;;5025964;28;20431;-59
2021/11/11 07:40:33;;;;;;;24.97;12.57;;;1.00;99.90;;;;;;5023538;28;22195;-60
2021/11/11 07:42:59;;;;;;;29.53;14.97;;;1.10;99.90;;;;;;5021143;28;20834;-60
2021/11/11 07:45:25;;;;;;;27.50;13.33;;;1.10;99.90;;;;;;5027386;28;20427;-59
2021/11/11 07:47:56;;;;;;;30.20;13.33;;;1.20;99.90;;;;;;5016718;28;20244;-59
2021/11/11 07:50:23;;;;;;;24.20;14.13;;;1.20;99.90;;;;;;5027750;28;20420;-59
2021/11/11 07:52:50;;;;;;;28.17;14.07;;;1.30;99.90;;;;;;5022395;28;20439;-59
2021/11/11 07:55:16;;;;;;;29.60;14.20;;;1.30;99.90;;;;;;5024336;28;20513;-59
2021/11/11 07:57:43;;;;;;;35.60;15.00;;;1.30;99.90;;;;;;5022277;28;20483;-60
2021/11/11 08:00:11;;;;;;;34.43;14.80;;;1.40;99.90;;;;;;5016015;28;20447;-58
2021/11/11 08:02:39;;;;;;;34.67;15.93;;;1.40;99.90;;;;;;5020242;28;20449;-59
2021/11/11 08:05:05;;;;;;;31.90;16.77;;;1.40;99.90;;;;;;5024050;28;20929;-60
2021/11/11 08:07:31;;;;;;;35.80;16.73;;;1.50;99.90;;;;;;5025461;28;20455;-60
2021/11/11 08:09:57;;;;;;;32.67;16.53;;;1.50;99.90;;;;;;5026222;28;20441;-60
2021/11/11 08:12:23;;;;;;;36.83;15.30;;;1.60;99.90;;;;;;5027925;28;20348;-58
2021/11/11 08:14:50;;;;;;;35.93;14.60;;;1.70;99.90;;;;;;5028834;28;20468;-60
2021/11/11 08:17:18;;;;;;;32.80;14.80;;;1.70;99.90;;;;;;5025762;28;20477;-59
2021/11/11 08:19:44;;;;;;;31.90;14.00;;;1.70;99.90;;;;;;5026111;28;20431;-58
2021/11/11 08:22:11;;;;;;;30.27;13.70;;;1.80;99.90;;;;;;5032755;23;20509;-57
2021/11/11 08:24:42;;;;;;;24.17;12.70;;;1.80;99.90;;;;;;5015316;28;20430;-57
2021/11/11 08:27:13;;;;;;;23.33;12.83;;;1.80;99.90;;;;;;5026421;28;20908;-59
2021/11/11 08:29:40;;;;;;;33.77;14.00;;;1.80;99.90;;;;;;5022137;28;20441;-58
2021/11/11 08:32:06;;;;;;;33.73;14.07;;;1.90;99.90;;;;;;5019978;28;20451;-59
2021/11/11 08:34:32;;;;;;;23.73;13.33;;;2.00;99.90;;;;;;5001547;28;20465;-59
2021/11/11 08:36:58;;;;;;;30.60;14.67;;;2.10;99.90;;;;;;5001673;28;20443;-61
2021/11/11 08:39:23;;;;;;;33.70;14.03;;;2.20;99.90;;;;;;5010790;28;20186;-61
2021/11/11 08:41:50;;;;;;;25.23;14.23;;;2.30;99.90;;;;;;4996609;28;20196;-60
2021/11/11 08:44:16;;;;;;;24.50;13.20;;;2.30;99.90;;;;;;5008885;28;20569;-59
2021/11/11 08:46:41;;;;;;;31.60;14.93;;;2.40;99.90;;;;;;5002378;28;20980;-60
2021/11/11 08:49:07;;;;;;;24.23;13.30;;;2.50;99.90;;;;;;5000355;28;20183;-61
2021/11/11 08:51:35;;;;;;;23.67;13.53;;;2.50;99.90;;;;;;5003421;28;20628;-61
2021/11/11 08:54:03;;;;;;;25.23;13.60;;;2.60;99.90;;;;;;5008414;28;20571;-60
2021/11/11 08:56:30;;;;;;;30.93;15.20;;;2.70;99.90;;;;;;4996545;28;20934;-60
2021/11/11 08:58:57;;;;;;;34.80;14.90;;;2.90;99.90;;;;;;5008374;28;20496;-60
2021/11/11 09:01:23;;;;;;;34.47;14.53;;;3.00;99.90;;;;;;5004975;28;20449;-60
2021/11/11 09:03:49;;;;;;;35.07;17.27;;;3.20;99.90;;;;;;5008156;28;20853;-61
2021/11/11 09:06:14;;;;;;;34.73;17.20;;;3.30;99.90;;;;;;5009886;28;20547;-59
2021/11/11 09:08:40;;;;;;;33.50;17.07;;;3.50;99.90;;;;;;5001672;28;20257;-61
2021/11/11 09:11:06;;;;;;;39.83;16.67;;;3.60;99.90;;;;;;5008662;28;20196;-61
2021/11/11 09:13:32;;;;;;;38.50;18.00;;;3.70;99.90;;;;;;5009553;28;20180;-61
2021/11/11 09:15:59;;;;;;;30.67;16.70;;;3.90;99.90;;;;;;5005610;28;20195;-61
2021/11/11 09:18:26;;;;;;;37.37;16.60;;;4.10;99.90;;;;;;5007005;28;20422;-61
2021/11/11 09:20:51;;;;;;;34.10;17.07;;;4.20;99.90;;;;;;5010160;28;20399;-61
2021/11/11 09:23:17;;;;;;;38.70;18.43;;;4.40;99.90;;;;;;5009499;28;20434;-59
2021/11/11 09:25:44;;;;;;;36.10;18.50;;;4.50;99.90;;;;;;5003638;28;20185;-61
2021/11/11 09:28:09;;;;;;;39.10;17.47;;;4.70;99.90;;;;;;5008381;28;20176;-61
2021/11/11 09:30:38;;;;;;;36.07;17.77;;;4.80;99.90;;;;;;5008182;28;20481;-61
2021/11/11 09:33:05;;;;;;;30.80;15.53;;;5.00;99.90;;;;;;5007555;28;20235;-61
2021/11/11 09:35:31;;;;;;;30.40;16.20;;;5.20;99.90;;;;;;5003841;28;20462;-61
2021/11/11 09:37:57;;;;;;;40.33;18.00;;;5.40;99.90;;;;;;5008389;28;20415;-61
2021/11/11 09:40:25;;;;;;;41.00;18.33;;;5.50;99.90;;;;;;5008613;28;20454;-60
2021/11/11 09:42:52;;;;;;;37.07;18.70;;;5.70;99.90;;;;;;5003041;28;20522;-61
2021/11/11 09:45:20;;;;;;;37.53;19.57;;;5.90;99.90;;;;;;4994854;28;20505;-59
2021/11/11 09:47:48;;;;;;;35.50;18.20;;;6.10;99.90;;;;;;5002248;28;20503;-59
2021/11/11 09:50:14;;;;;;;43.03;20.33;;;6.30;99.90;;;;;;5010008;28;20434;-60
2021/11/11 09:52:40;;;;;;;50.27;20.80;;;6.40;99.90;;;;;;5003753;28;20447;-60
2021/11/11 10:00:41;;;;;;;45.87;19.07;;;6.90;99.90;;;;;;5003387;28;20637;-61
2021/11/11 10:03:07;;;;;;;40.00;18.53;;;7.00;99.90;;;;;;5005556;28;21034;-62
2021/11/11 10:05:33;;;;;;;63.83;20.73;;;7.20;99.90;;;;;;5003138;28;20555;-61
2021/11/11 10:08:02;;;;;;;49.50;18.90;;;7.40;99.90;;;;;;5009160;28;20188;-61
2021/11/11 10:10:41;;;;;;;60.77;22.60;;;7.60;99.90;;;;;;5002094;28;21037;-59
2021/11/11 10:13:13;;;;;;;49.00;18.80;;;7.80;99.90;;;;;;5007919;28;20532;-60
2021/11/11 10:16:10;;;;;;;50.43;18.60;;;7.90;99.90;;;;;;4997785;28;20501;-61
2021/11/11 10:18:52;;;;;;;60.50;18.40;;;8.10;99.90;;;;;;5000194;28;20570;-62
2021/11/11 10:21:22;;;;;;;54.10;17.07;;;8.40;99.90;;;;;;5004681;28;21060;-57
2021/11/11 10:23:49;;;;;;;43.43;17.23;;;8.60;99.90;;;;;;5002480;28;20435;-62
2021/11/11 10:26:33;;;;;;;39.27;16.00;;;8.80;99.90;;;;;;5005589;28;20465;-62
2021/11/11 10:28:59;;;;;;;39.73;16.80;;;8.90;99.90;;;;;;4998343;28;20419;-61
2021/11/11 10:31:25;;;;;;;44.33;16.40;;;9.00;99.90;;;;;;5007958;28;20459;-60
2021/11/11 10:34:17;;;;;;;31.47;15.10;;;9.10;99.90;;;;;;4993950;28;20993;-60
2021/11/11 10:36:52;;;;;;;31.83;15.57;;;9.20;99.50;;;;;;5004642;28;20350;-62
2021/11/11 10:39:27;;;;;;;26.60;14.23;;;9.30;99.00;;;;;;5009022;28;20414;-61
2021/11/11 10:41:56;;;;;;;42.00;15.63;;;9.40;99.50;;;;;;5008847;28;20467;-62
2021/11/11 10:44:31;;;;;;;38.23;15.40;;;9.60;98.60;;;;;;5002994;28;20847;-61
2021/11/11 10:47:01;;;;;;;30.97;14.00;;;9.80;98.20;;;;;;4994785;28;20429;-61
2021/11/11 10:49:37;;;;;;;31.20;13.60;;;9.90;97.40;;;;;;5011109;28;20418;-61
2021/11/11 10:52:24;;;;;;;26.10;14.07;;;10.00;96.20;;;;;;4994549;28;20451;-61
2021/11/11 10:55:10;;;;;;;53.30;12.93;;;10.30;94.70;;;;;;4999977;28;20459;-61
2021/11/11 10:57:49;;;;;;;26.90;13.60;;;10.50;92.50;;;;;;5010940;28;20490;-61
2021/11/11 11:00:20;;;;;;;27.00;11.50;;;10.60;91.20;;;;;;4996129;28;20473;-62
2021/11/11 11:03:00;;;;;;;21.70;11.90;;;10.80;89.70;;;;;;5003631;28;20451;-61
2021/11/11 11:05:38;;;;;;;24.20;11.53;;;11.00;87.40;;;;;;5011305;28;20433;-60
2021/11/11 11:08:11;;;;;;;23.80;11.43;;;11.20;87.30;;;;;;5008742;28;20968;-60
2021/11/11 11:10:44;;;;;;;27.77;12.73;;;11.50;87.70;;;;;;5006892;28;20443;-60
2021/11/11 11:13:14;;;;;;;27.97;12.40;;;11.70;82.00;;;;;;5006215;28;20451;-62
2021/11/11 11:15:53;;;;;;;21.73;11.60;;;11.90;80.30;;;;;;4998785;28;20494;-61
2021/11/11 11:18:40;;;;;;;21.10;12.23;;;12.10;77.90;;;;;;5003179;28;20446;-62
2021/11/11 11:21:16;;;;;;;17.13;10.57;;;12.40;77.70;;;;;;5006977;28;20439;-63
2021/11/11 11:23:49;;;;;;;22.00;11.80;;;12.60;75.10;;;;;;5010660;28;20415;-63
2021/11/11 11:26:24;;;;;;;25.27;10.93;;;12.70;71.60;;;;;;5008348;28;20431;-62
2021/11/11 11:29:14;;;;;;;18.03;11.00;;;12.80;70.60;;;;;;5000806;28;21264;-63
2021/11/11 11:31:52;;;;;;;24.80;12.27;;;12.90;68.30;;;;;;5011965;28;20454;-62
2021/11/11 11:34:21;;;;;;;22.57;12.17;;;13.10;67.70;;;;;;5002001;28;20823;-62
2021/11/11 11:36:49;;;;;;;26.70;11.60;;;13.30;67.60;;;;;;5007630;28;20435;-62
2021/11/11 11:39:26;;;;;;;21.87;11.57;;;13.50;66.00;;;;;;5005553;28;20478;-60
2021/11/11 11:41:52;;;;;;;27.83;12.20;;;13.90;64.30;;;;;;5002025;28;20443;-62
2021/11/11 11:44:29;;;;;;;27.60;11.73;;;14.40;61.10;;;;;;5008002;28;20412;-60
2021/11/11 11:47:11;;;;;;;34.63;12.17;;;14.90;58.30;;;;;;5001609;28;20419;-61
2021/11/11 11:49:38;;;;;;;21.33;11.40;;;15.50;56.40;;;;;;5010429;28;20415;-60
2021/11/11 11:52:06;;;;;;;28.37;11.20;;;15.90;54.00;;;;;;5004618;28;20439;-60
2021/11/11 11:54:42;;;;;;;30.57;10.50;;;16.40;52.50;;;;;;5004330;28;21384;-61
2021/11/11 11:57:15;;;;;;;16.27;8.73;;;16.70;51.30;;;;;;5003359;28;20419;-63
2021/11/11 11:59:45;;;;;;;40.17;10.27;;;16.90;49.60;;;;;;5009644;28;20551;-62
2021/11/11 12:02:34;;;;;;;14.30;9.20;;;17.10;49.70;;;;;;5007071;28;20443;-63
2021/11/11 12:10:34;;;;;;;14.90;7.17;;;17.30;48.70;;;;;;4990011;28;20424;-63
2021/11/11 12:28:34;;;;;;;14.20;8.03;;;15.10;48.90;;;;;;5008423;28;20438;-62
2021/11/11 12:40:35;;;;;;;11.40;5.30;;;13.30;53.90;;;;;;5009470;28;20421;-62
2021/11/11 12:43:19;;;;;;;9.90;4.17;;;13.20;54.80;;;;;;5002565;28;20969;-61
2021/11/11 12:45:45;;;;;;;9.50;4.67;;;13.10;55.80;;;;;;5018143;28;20431;-62
2021/11/11 12:48:11;;;;;;;4.93;3.67;;;13.10;56.10;;;;;;5005840;28;20458;-59
2021/11/11 12:50:50;;;;;;;7.40;4.43;;;13.10;56.20;;;;;;5005502;28;20811;-61
2021/11/11 12:53:16;;;;;;;9.60;5.23;;;13.10;56.10;;;;;;5006984;28;20318;-61
2021/11/11 12:55:46;;;;;;;11.00;5.00;;;13.20;56.60;;;;;;5006599;28;20462;-60
2021/11/11 12:58:17;;;;;;;10.13;5.37;;;13.30;57.80;;;;;;5002660;28;20443;-59
2021/11/11 13:00:47;;;;;;;11.30;6.33;;;13.40;59.40;;;;;;5004528;28;20530;-60
2021/11/11 13:03:14;;;;;;;11.33;6.50;;;13.50;60.30;;;;;;5004048;28;20460;-60
2021/11/11 13:05:47;;;;;;;9.43;6.30;;;13.70;61.00;;;;;;5004165;28;20446;-60
2021/11/11 13:08:16;;;;;;;12.43;6.07;;;13.80;61.10;;;;;;5004562;28;20865;-60
2021/11/11 13:10:52;;;;;;;9.03;6.40;;;13.90;60.50;;;;;;5007771;28;20546;-61
2021/11/11 13:13:24;;;;;;;14.67;7.27;;;14.10;59.90;;;;;;5008107;28;20431;-61
2021/11/11 13:15:54;;;;;;;12.43;7.33;;;14.20;58.90;;;;;;5006978;28;20482;-60
2021/11/11 13:18:50;;;;;;;11.93;6.90;;;14.40;58.30;;;;;;5001832;28;20482;-61
2021/11/11 13:21:27;;;;;;;11.90;7.00;;;14.70;57.10;;;;;;5002397;28;20493;-59
2021/11/11 13:24:51;;;;;;;11.30;6.20;;;14.90;55.90;;;;;;5000425;28;20434;-65
2021/11/11 13:59:29;;;;;;;8.93;3.83;;;18.30;43.10;;;;;;5000712;28;20474;-62
2021/11/11 15:20:53;;;;;;;8.13;5.90;;;10.90;72.90;;;;;;5004969;28;20482;-62
2021/11/11 16:24:06;;;;;;;46.63;26.40;;;8.90;98.90;;;;;;5002267;28;20432;-58
2021/11/11 16:26:32;;;;;;;44.87;24.20;;;8.80;99.20;;;;;;5006766;28;20420;-60
2021/11/11 16:28:59;;;;;;;40.30;22.70;;;8.80;99.80;;;;;;5005363;28;22381;-61
2021/11/11 16:31:26;;;;;;;47.17;25.47;;;8.70;99.90;;;;;;5003531;28;20204;-61
2021/11/11 16:33:54;;;;;;;44.27;25.10;;;8.60;99.90;;;;;;5010702;28;20494;-61